createdAt,value
2023-04-22T00:00:26.474Z,9.76
2023-04-22T00:01:26.499Z,9.77
2023-04-22T00:02:26.528Z,9.82
2023-04-22T00:03:26.698Z,9.84
2023-04-22T00:04:26.620Z,9.82
2023-04-22T00:05:26.614Z,9.81
2023-04-22T00:06:26.406Z,9.80
2023-04-22T00:07:26.384Z,9.77
2023-04-22T00:08:26.359Z,9.74
2023-04-22T00:09:26.384Z,9.74
2023-04-22T00:10:26.352Z,9.72
2023-04-22T00:11:26.348Z,9.70
2023-04-22T00:12:26.309Z,9.69
2023-04-22T00:13:26.310Z,9.69
2023-04-22T00:14:26.425Z,9.67
2023-04-22T00:15:26.271Z,9.66
2023-04-22T00:16:26.442Z,9.66
2023-04-22T00:17:26.272Z,9.66
2023-04-22T00:18:26.252Z,9.67
2023-04-22T00:19:26.243Z,9.67
2023-04-22T00:20:26.203Z,9.70
2023-04-22T00:21:26.182Z,9.72
2023-04-22T00:22:26.192Z,9.72
2023-04-22T00:23:26.179Z,9.72
2023-04-22T00:24:26.130Z,9.69
2023-04-22T00:25:26.135Z,9.72
2023-04-22T00:26:26.138Z,9.72
2023-04-22T00:27:26.120Z,9.72
2023-04-22T00:28:26.093Z,9.72
2023-04-22T00:29:26.071Z,9.73
2023-04-22T00:30:26.062Z,9.73
2023-04-22T00:31:26.164Z,9.73
2023-04-22T00:32:26.096Z,9.74
2023-04-22T00:33:26.036Z,9.74
2023-04-22T00:34:26.006Z,9.74
2023-04-22T00:35:26.000Z,9.72
2023-04-22T00:36:25.979Z,9.73
2023-04-22T00:37:26.024Z,9.74
2023-04-22T00:38:25.945Z,9.73
2023-04-22T00:39:25.948Z,9.72
2023-04-22T00:40:25.970Z,9.69
2023-04-22T00:41:25.909Z,9.67
2023-04-22T00:42:25.908Z,9.67
2023-04-22T00:43:25.898Z,9.70
2023-04-22T00:44:25.889Z,9.72
2023-04-22T00:45:25.850Z,9.72
2023-04-22T00:46:25.853Z,9.72
2023-04-22T00:47:25.870Z,9.73
2023-04-22T00:48:28.686Z,9.74
2023-04-22T00:49:25.803Z,9.77
2023-04-22T00:50:25.800Z,9.80
2023-04-22T00:51:25.786Z,9.81
2023-04-22T00:52:25.777Z,9.84
2023-04-22T00:53:25.780Z,9.87
2023-04-22T00:54:25.739Z,9.87
2023-04-22T00:55:25.756Z,9.90
2023-04-22T00:56:25.711Z,9.88
2023-04-22T00:57:25.706Z,9.87
2023-04-22T00:58:25.687Z,9.85
2023-04-22T00:59:25.673Z,9.85
2023-04-22T01:00:25.659Z,9.84
2023-04-22T01:01:25.768Z,9.81
2023-04-22T01:02:25.808Z,9.80
2023-04-22T01:03:25.753Z,9.74
2023-04-22T01:04:25.672Z,9.73
2023-04-22T01:05:25.618Z,9.73
2023-04-22T01:06:25.586Z,9.73
2023-04-22T01:07:25.579Z,9.73
2023-04-22T01:08:25.542Z,9.73
2023-04-22T01:09:25.557Z,9.73
2023-04-22T01:10:25.529Z,9.73
2023-04-22T01:11:25.525Z,9.72
2023-04-22T01:12:25.515Z,9.69
2023-04-22T01:13:25.491Z,9.67
2023-04-22T01:14:25.473Z,9.66
2023-04-22T01:15:25.453Z,9.66
2023-04-22T01:16:25.511Z,9.67
2023-04-22T01:17:25.469Z,9.66
2023-04-22T01:18:25.411Z,9.63
2023-04-22T01:19:25.405Z,9.64
2023-04-22T01:20:25.410Z,9.66
2023-04-22T01:21:25.380Z,9.67
2023-04-22T01:22:25.570Z,9.66
2023-04-22T01:23:25.380Z,9.63
2023-04-22T01:24:25.339Z,9.63
2023-04-22T01:25:25.340Z,9.64
2023-04-22T01:26:25.334Z,9.62
2023-04-22T01:27:25.323Z,9.56
2023-04-22T01:28:25.284Z,9.54
2023-04-22T01:29:25.284Z,9.52
2023-04-22T01:30:25.290Z,9.52
2023-04-22T01:31:25.280Z,9.51
2023-04-22T01:32:25.311Z,9.51
2023-04-22T01:33:25.229Z,9.51
2023-04-22T01:34:25.213Z,9.52
2023-04-22T01:35:25.194Z,9.54
2023-04-22T01:36:25.174Z,9.52
2023-04-22T01:37:25.171Z,9.52
2023-04-22T01:38:25.150Z,9.52
2023-04-22T01:39:25.178Z,9.52
2023-04-22T01:40:25.121Z,9.52
2023-04-22T01:41:25.115Z,9.55
2023-04-22T01:42:25.111Z,9.54
2023-04-22T01:43:25.088Z,9.55
2023-04-22T01:44:25.074Z,9.56
2023-04-22T01:45:25.053Z,9.59
2023-04-22T01:46:25.079Z,9.58
2023-04-22T01:47:25.044Z,9.56
2023-04-22T01:48:25.005Z,9.55
2023-04-22T01:49:25.012Z,9.55
2023-04-22T01:50:24.978Z,9.55
2023-04-22T01:51:24.981Z,9.55
2023-04-22T01:52:24.995Z,9.55
2023-04-22T01:53:24.946Z,9.55
2023-04-22T01:54:24.935Z,9.59
2023-04-22T01:55:24.965Z,9.59
2023-04-22T01:56:24.899Z,9.62
2023-04-22T01:57:24.916Z,9.62
2023-04-22T01:58:24.880Z,9.59
2023-04-22T01:59:24.867Z,9.62
2023-04-22T02:00:24.837Z,9.63
2023-04-22T02:01:24.878Z,9.64
2023-04-22T02:02:24.946Z,9.64
2023-04-22T02:03:24.899Z,9.63
2023-04-22T02:04:24.817Z,9.59
2023-04-22T02:05:24.777Z,9.58
2023-04-22T02:06:24.768Z,9.58
2023-04-22T02:07:24.768Z,9.56
2023-04-22T02:08:24.745Z,9.55
2023-04-22T02:09:24.724Z,9.54
2023-04-22T02:10:24.736Z,9.54
2023-04-22T02:11:24.719Z,9.54
2023-04-22T02:12:24.700Z,9.52
2023-04-22T02:13:24.672Z,9.52
2023-04-22T02:14:24.672Z,9.51
2023-04-22T02:15:24.649Z,9.51
2023-04-22T02:16:24.727Z,9.54
2023-04-22T02:17:24.629Z,9.54
2023-04-22T02:18:24.602Z,9.54
2023-04-22T02:19:24.651Z,9.55
2023-04-22T02:20:24.560Z,9.58
2023-04-22T02:21:24.563Z,9.56
2023-04-22T02:22:24.572Z,9.56
2023-04-22T02:23:24.532Z,9.56
2023-04-22T02:24:24.514Z,9.56
2023-04-22T02:25:24.554Z,9.59
2023-04-22T02:26:24.491Z,9.59
2023-04-22T02:27:24.484Z,9.63
2023-04-22T02:28:24.473Z,9.63
2023-04-22T02:29:24.478Z,9.63
2023-04-22T02:30:24.424Z,9.59
2023-04-22T02:31:24.462Z,9.58
2023-04-22T02:32:24.432Z,9.63
2023-04-22T02:33:24.435Z,9.59
2023-04-22T02:34:24.846Z,9.59
2023-04-22T02:35:24.445Z,9.54
2023-04-22T02:36:24.626Z,9.51
2023-04-22T02:37:24.976Z,9.51
2023-04-22T02:38:24.348Z,9.54
2023-04-22T02:39:25.022Z,9.52
2023-04-22T02:40:24.801Z,9.52
2023-04-22T02:41:24.853Z,9.52
2023-04-22T02:42:24.266Z,9.55
2023-04-22T02:43:25.400Z,9.62
2023-04-22T02:44:26.544Z,9.64
2023-04-22T02:45:25.721Z,9.64
2023-04-22T02:46:24.916Z,9.67
2023-04-22T02:47:25.378Z,9.67
2023-04-22T02:48:25.934Z,9.66
2023-04-22T02:49:24.164Z,9.66
2023-04-22T02:50:24.900Z,9.66
2023-04-22T02:51:24.672Z,9.64
2023-04-22T02:52:24.132Z,9.63
2023-04-22T02:53:24.167Z,9.62
2023-04-22T02:54:24.094Z,9.62
2023-04-22T02:55:24.086Z,9.62
2023-04-22T02:56:24.081Z,9.62
2023-04-22T02:57:24.068Z,9.62
2023-04-22T02:58:24.065Z,9.58
2023-04-22T02:59:24.050Z,9.56
2023-04-22T03:00:24.039Z,9.58
2023-04-22T03:01:24.154Z,9.55
2023-04-22T03:02:24.188Z,9.52
2023-04-22T03:03:24.212Z,9.52
2023-04-22T03:04:24.186Z,9.51
2023-04-22T03:05:24.012Z,9.49
2023-04-22T03:06:23.940Z,9.48
2023-04-22T03:07:23.943Z,9.48
2023-04-22T03:08:23.912Z,9.47
2023-04-22T03:09:23.892Z,9.47
2023-04-22T03:10:23.889Z,9.45
2023-04-22T03:11:23.864Z,9.45
2023-04-22T03:12:23.903Z,9.47
2023-04-22T03:13:23.868Z,9.45
2023-04-22T03:14:23.824Z,9.45
2023-04-22T03:15:23.850Z,9.45
2023-04-22T03:16:23.839Z,9.44
2023-04-22T03:17:23.820Z,9.44
2023-04-22T03:18:23.792Z,9.42
2023-04-22T03:19:23.760Z,9.40
2023-04-22T03:20:23.748Z,9.42
2023-04-22T03:21:23.736Z,9.37
2023-04-22T03:22:23.717Z,9.40
2023-04-22T03:23:23.736Z,9.40
2023-04-22T03:24:23.698Z,9.40
2023-04-22T03:25:23.868Z,9.39
2023-04-22T03:26:23.662Z,9.40
2023-04-22T03:27:23.656Z,9.37
2023-04-22T03:28:23.652Z,9.39
2023-04-22T03:29:23.628Z,9.39
2023-04-22T03:30:23.615Z,9.39
2023-04-22T03:31:23.628Z,9.40
2023-04-22T03:32:23.702Z,9.39
2023-04-22T03:33:23.573Z,9.37
2023-04-22T03:34:23.580Z,9.37
2023-04-22T03:35:23.531Z,9.37
2023-04-22T03:36:23.525Z,9.36
2023-04-22T03:37:23.610Z,9.36
2023-04-22T03:38:23.516Z,9.34
2023-04-22T03:39:23.486Z,9.34
2023-04-22T03:40:23.479Z,9.34
2023-04-22T03:41:23.457Z,9.33
2023-04-22T03:42:23.478Z,9.33
2023-04-22T03:43:23.451Z,9.33
2023-04-22T03:44:23.425Z,9.31
2023-04-22T03:45:23.431Z,9.33
2023-04-22T03:46:23.522Z,9.33
2023-04-22T03:47:23.394Z,9.30
2023-04-22T03:48:23.379Z,9.30
2023-04-22T03:49:23.359Z,9.30
2023-04-22T03:50:23.347Z,9.29
2023-04-22T03:51:23.328Z,9.31
2023-04-22T03:52:23.319Z,9.31
2023-04-22T03:53:23.312Z,9.31
2023-04-22T03:54:23.287Z,9.33
2023-04-22T03:55:23.269Z,9.34
2023-04-22T03:56:23.251Z,9.33
2023-04-22T03:57:30.396Z,9.33
2023-04-22T03:58:23.247Z,9.33
2023-04-22T03:59:23.220Z,9.33
2023-04-22T04:00:23.198Z,9.34
2023-04-22T04:01:23.199Z,9.33
2023-04-22T04:02:23.346Z,9.33
2023-04-22T04:03:23.473Z,9.30
2023-04-22T04:04:23.350Z,9.31
2023-04-22T04:05:23.228Z,9.31
2023-04-22T04:06:23.121Z,9.30
2023-04-22T04:07:23.096Z,9.31
2023-04-22T04:08:23.110Z,9.29
2023-04-22T04:09:23.111Z,9.29
2023-04-22T04:10:23.064Z,9.31
2023-04-22T04:11:23.064Z,9.29
2023-04-22T04:12:23.021Z,9.30
2023-04-22T04:13:23.027Z,9.29
2023-04-22T04:14:23.023Z,9.27
2023-04-22T04:15:22.978Z,9.26
2023-04-22T04:16:23.068Z,9.27
2023-04-22T04:17:22.983Z,9.24
2023-04-22T04:18:22.968Z,9.22
2023-04-22T04:19:22.937Z,9.21
2023-04-22T04:20:22.923Z,9.18
2023-04-22T04:21:22.926Z,9.21
2023-04-22T04:22:22.950Z,9.18
2023-04-22T04:23:22.919Z,9.13
2023-04-22T04:24:22.870Z,9.12
2023-04-22T04:25:22.850Z,9.13
2023-04-22T04:26:22.842Z,9.12
2023-04-22T04:27:22.822Z,9.12
2023-04-22T04:28:22.832Z,9.13
2023-04-22T04:29:22.799Z,9.15
2023-04-22T04:30:22.794Z,9.15
2023-04-22T04:31:22.797Z,9.15
2023-04-22T04:32:22.781Z,9.16
2023-04-22T04:33:22.753Z,9.16
2023-04-22T04:34:22.730Z,9.15
2023-04-22T04:35:22.720Z,9.15
2023-04-22T04:36:22.700Z,9.13
2023-04-22T04:37:22.693Z,9.15
2023-04-22T04:38:22.687Z,9.18
2023-04-22T04:39:22.665Z,9.18
2023-04-22T04:40:22.644Z,9.19
2023-04-22T04:41:22.627Z,9.18
2023-04-22T04:42:22.620Z,9.18
2023-04-22T04:43:22.617Z,9.18
2023-04-22T04:44:22.591Z,9.18
2023-04-22T04:45:22.610Z,9.15
2023-04-22T04:46:22.689Z,9.13
2023-04-22T04:47:22.645Z,9.13
2023-04-22T04:48:22.545Z,9.15
2023-04-22T04:49:22.521Z,9.13
2023-04-22T04:50:22.509Z,9.13
2023-04-22T04:51:22.506Z,9.12
2023-04-22T04:52:22.488Z,9.12
2023-04-22T04:53:22.470Z,9.12
2023-04-22T04:54:22.454Z,9.12
2023-04-22T04:55:22.428Z,9.12
2023-04-22T04:56:22.427Z,9.11
2023-04-22T04:57:22.416Z,9.09
2023-04-22T04:58:22.418Z,9.09
2023-04-22T04:59:22.380Z,9.08
2023-04-22T05:00:22.367Z,9.09
2023-04-22T05:01:22.425Z,9.08
2023-04-22T05:02:22.633Z,9.09
2023-04-22T05:03:22.424Z,9.09
2023-04-22T05:04:22.549Z,9.08
2023-04-22T05:05:22.293Z,9.08
2023-04-22T05:06:22.300Z,9.05
2023-04-22T05:07:22.277Z,9.03
2023-04-22T05:08:22.277Z,9.02
2023-04-22T05:09:22.265Z,9.08
2023-04-22T05:10:22.240Z,9.05
2023-04-22T05:11:22.234Z,9.03
2023-04-22T05:12:22.212Z,9.05
2023-04-22T05:13:22.205Z,9.05
2023-04-22T05:14:22.217Z,9.05
2023-04-22T05:15:22.181Z,9.09
2023-04-22T05:16:22.217Z,9.11
2023-04-22T05:17:22.200Z,9.13
2023-04-22T05:18:22.144Z,9.15
2023-04-22T05:19:22.131Z,9.15
2023-04-22T05:20:22.104Z,9.19
2023-04-22T05:21:22.077Z,9.19
2023-04-22T05:22:22.094Z,9.19
2023-04-22T05:23:22.076Z,9.22
2023-04-22T05:24:22.070Z,9.21
2023-04-22T05:25:22.033Z,9.22
2023-04-22T05:26:22.025Z,9.22
2023-04-22T05:27:22.011Z,9.21
2023-04-22T05:28:22.012Z,9.21
2023-04-22T05:29:21.983Z,9.22
2023-04-22T05:30:21.966Z,9.24
2023-04-22T05:31:21.964Z,9.26
2023-04-22T05:32:22.040Z,9.24
2023-04-22T05:33:21.941Z,9.26
2023-04-22T05:34:21.919Z,9.26
2023-04-22T05:35:21.896Z,9.29
2023-04-22T05:36:21.886Z,9.27
2023-04-22T05:37:21.857Z,9.31
2023-04-22T05:38:21.855Z,9.33
2023-04-22T05:39:21.872Z,9.36
2023-04-22T05:40:21.857Z,9.37
2023-04-22T05:41:21.810Z,9.37
2023-04-22T05:42:21.811Z,9.40
2023-04-22T05:43:21.779Z,9.44
2023-04-22T05:44:21.781Z,9.45
2023-04-22T05:45:21.742Z,9.49
2023-04-22T05:46:21.761Z,9.49
2023-04-22T05:47:21.746Z,9.54
2023-04-22T05:48:21.722Z,9.54
2023-04-22T05:49:21.705Z,9.56
2023-04-22T05:50:23.410Z,9.62
2023-04-22T05:51:21.666Z,9.62
2023-04-22T05:52:21.668Z,9.62
2023-04-22T05:53:21.644Z,9.63
2023-04-22T05:54:21.655Z,9.66
2023-04-22T05:55:21.649Z,9.69
2023-04-22T05:56:21.621Z,9.70
2023-04-22T05:57:21.592Z,9.73
2023-04-22T05:58:21.578Z,9.76
2023-04-22T05:59:21.908Z,9.76
2023-04-22T06:00:21.554Z,9.80
2023-04-22T06:01:21.556Z,9.81
2023-04-22T06:02:21.634Z,9.84
2023-04-22T06:03:21.737Z,9.87
2023-04-22T06:04:21.780Z,9.82
2023-04-22T06:05:21.567Z,9.84
2023-04-22T06:06:21.472Z,9.85
2023-04-22T06:07:21.440Z,9.88
2023-04-22T06:08:21.445Z,9.92
2023-04-22T06:09:21.453Z,9.92
2023-04-22T06:10:21.418Z,9.92
2023-04-22T06:11:21.405Z,9.94
2023-04-22T06:12:21.392Z,9.97
2023-04-22T06:13:21.360Z,10.00
2023-04-22T06:14:21.395Z,10.02
2023-04-22T06:15:21.350Z,10.03
2023-04-22T06:16:21.341Z,10.03
2023-04-22T06:17:21.346Z,10.06
2023-04-22T06:18:21.315Z,10.06
2023-04-22T06:19:21.324Z,10.07
2023-04-22T06:20:21.365Z,10.09
2023-04-22T06:21:21.263Z,10.09
2023-04-22T06:22:21.256Z,10.10
2023-04-22T06:23:21.271Z,10.12
2023-04-22T06:24:21.248Z,10.15
2023-04-22T06:25:21.231Z,10.17
2023-04-22T06:26:21.214Z,10.18
2023-04-22T06:27:21.219Z,10.21
2023-04-22T06:28:21.190Z,10.20
2023-04-22T06:29:21.170Z,10.21
2023-04-22T06:30:21.143Z,10.24
2023-04-22T06:31:21.335Z,10.25
2023-04-22T06:32:21.120Z,10.25
2023-04-22T06:33:21.102Z,10.30
2023-04-22T06:34:21.147Z,10.31
2023-04-22T06:35:21.087Z,10.33
2023-04-22T06:36:21.056Z,10.36
2023-04-22T06:37:21.050Z,10.38
2023-04-22T06:38:21.054Z,10.42
2023-04-22T06:39:21.046Z,10.43
2023-04-22T06:40:21.029Z,10.46
2023-04-22T06:41:21.002Z,10.51
2023-04-22T06:42:20.988Z,10.75
2023-04-22T06:43:20.980Z,11.01
2023-04-22T06:44:20.984Z,11.22
2023-04-22T06:45:20.964Z,11.35
2023-04-22T06:46:22.155Z,11.53
2023-04-22T06:47:21.581Z,11.73
2023-04-22T06:48:20.972Z,11.91
2023-04-22T06:49:20.920Z,12.02
2023-04-22T06:50:20.917Z,12.12
2023-04-22T06:51:20.886Z,12.21
2023-04-22T06:52:21.926Z,12.33
2023-04-22T06:53:20.877Z,12.45
2023-04-22T06:54:20.848Z,12.54
2023-04-22T06:55:20.815Z,12.62
2023-04-22T06:56:20.779Z,12.62
2023-04-22T06:57:20.781Z,12.57
2023-04-22T06:58:20.773Z,12.61
2023-04-22T06:59:20.797Z,12.66
2023-04-22T07:00:20.756Z,12.75
2023-04-22T07:01:20.746Z,12.84
2023-04-22T07:02:20.809Z,12.91
2023-04-22T07:03:20.828Z,12.95
2023-04-22T07:04:20.805Z,12.99
2023-04-22T07:05:20.677Z,12.99
2023-04-22T07:06:20.656Z,12.90
2023-04-22T07:07:20.645Z,12.78
2023-04-22T07:08:20.721Z,12.66
2023-04-22T07:09:20.652Z,12.57
2023-04-22T07:10:20.612Z,12.50
2023-04-22T07:11:20.585Z,12.39
2023-04-22T07:12:20.582Z,12.29
2023-04-22T07:13:20.562Z,12.23
2023-04-22T07:14:20.577Z,12.17
2023-04-22T07:15:20.532Z,12.12
2023-04-22T07:16:20.577Z,12.08
2023-04-22T07:17:20.515Z,12.05
2023-04-22T07:18:20.504Z,12.03
2023-04-22T07:19:20.487Z,12.00
2023-04-22T07:20:20.485Z,12.02
2023-04-22T07:21:20.454Z,12.03
2023-04-22T07:22:20.424Z,12.03
2023-04-22T07:23:20.490Z,12.03
2023-04-22T07:24:20.434Z,12.05
2023-04-22T07:25:20.440Z,12.07
2023-04-22T07:26:20.394Z,12.05
2023-04-22T07:27:20.378Z,12.07
2023-04-22T07:28:20.364Z,12.08
2023-04-22T07:29:20.376Z,12.11
2023-04-22T07:30:20.333Z,12.11
2023-04-22T07:31:20.356Z,12.14
2023-04-22T07:32:20.334Z,12.15
2023-04-22T07:33:20.305Z,12.17
2023-04-22T07:34:20.309Z,12.15
2023-04-22T07:35:20.270Z,12.15
2023-04-22T07:36:20.253Z,12.18
2023-04-22T07:37:20.256Z,12.20
2023-04-22T07:38:20.260Z,12.20
2023-04-22T07:39:20.249Z,12.20
2023-04-22T07:40:20.217Z,12.23
2023-04-22T07:41:20.205Z,12.28
2023-04-22T07:42:20.176Z,12.29
2023-04-22T07:43:20.165Z,12.33
2023-04-22T07:44:20.172Z,12.35
2023-04-22T07:45:20.168Z,12.39
2023-04-22T07:46:20.348Z,12.43
2023-04-22T07:47:20.106Z,12.45
2023-04-22T07:48:20.103Z,12.48
2023-04-22T07:49:20.125Z,12.53
2023-04-22T07:50:20.142Z,12.55
2023-04-22T07:51:20.055Z,12.62
2023-04-22T07:52:20.043Z,12.65
2023-04-22T07:53:20.128Z,12.69
2023-04-22T07:54:20.039Z,12.72
2023-04-22T07:55:20.030Z,12.75
2023-04-22T07:56:20.013Z,12.78
2023-04-22T07:57:19.976Z,12.83
2023-04-22T07:58:19.964Z,12.86
2023-04-22T07:59:19.953Z,12.90
2023-04-22T08:00:19.950Z,12.93
2023-04-22T08:01:20.291Z,12.95
2023-04-22T08:02:20.138Z,12.99
2023-04-22T08:03:19.985Z,13.01
2023-04-22T08:04:20.058Z,13.06
2023-04-22T08:05:19.982Z,13.11
2023-04-22T08:06:19.871Z,13.13
2023-04-22T08:08:19.844Z,13.26
2023-04-22T08:09:19.829Z,13.30
2023-04-22T08:10:19.838Z,13.39
2023-04-22T08:11:19.805Z,13.42
2023-04-22T08:12:19.791Z,13.46
2023-04-22T08:13:19.794Z,13.50
2023-04-22T08:14:19.770Z,13.52
2023-04-22T08:15:19.826Z,13.58
2023-04-22T08:16:19.789Z,13.67
2023-04-22T08:17:19.732Z,13.71
2023-04-22T08:18:20.518Z,13.75
2023-04-22T08:19:19.690Z,13.79
2023-04-22T08:20:19.710Z,13.80
2023-04-22T08:21:19.666Z,13.83
2023-04-22T08:22:19.656Z,13.87
2023-04-22T08:23:19.650Z,13.89
2023-04-22T08:24:19.626Z,13.93
2023-04-22T08:25:19.637Z,13.94
2023-04-22T08:26:19.628Z,13.97
2023-04-22T08:27:19.581Z,14.00
2023-04-22T08:28:19.571Z,14.01
2023-04-22T08:29:19.555Z,14.05
2023-04-22T08:30:19.547Z,14.12
2023-04-22T08:31:19.576Z,14.13
2023-04-22T08:32:19.530Z,14.19
2023-04-22T08:33:19.506Z,14.26
2023-04-22T08:34:19.481Z,14.28
2023-04-22T08:35:19.498Z,14.31
2023-04-22T08:36:19.478Z,14.36
2023-04-22T08:37:19.440Z,14.37
2023-04-22T08:38:19.436Z,14.40
2023-04-22T08:39:19.414Z,14.43
2023-04-22T08:40:19.430Z,14.44
2023-04-22T08:41:19.416Z,14.48
2023-04-22T08:42:19.369Z,14.49
2023-04-22T08:43:19.364Z,14.45
2023-04-22T08:44:19.360Z,14.49
2023-04-22T08:45:19.364Z,14.48
2023-04-22T08:46:19.351Z,14.49
2023-04-22T08:47:19.313Z,14.52
2023-04-22T08:48:19.300Z,14.56
2023-04-22T08:49:19.295Z,14.63
2023-04-22T08:50:19.296Z,14.66
2023-04-22T08:51:19.268Z,14.70
2023-04-22T08:52:19.230Z,14.74
2023-04-22T08:53:19.230Z,14.74
2023-04-22T08:54:19.207Z,14.78
2023-04-22T08:55:19.263Z,14.82
2023-04-22T08:56:19.180Z,14.87
2023-04-22T08:57:19.176Z,14.90
2023-04-22T08:58:19.167Z,14.94
2023-04-22T08:59:19.149Z,14.97
2023-04-22T09:00:19.173Z,15.07
2023-04-22T09:01:19.156Z,15.11
2023-04-22T09:02:19.117Z,15.19
2023-04-22T09:03:19.163Z,15.26
2023-04-22T09:04:19.204Z,15.32
2023-04-22T09:05:19.072Z,15.35
2023-04-22T09:06:19.048Z,15.39
2023-04-22T09:07:19.124Z,15.43
2023-04-22T09:08:19.021Z,15.45
2023-04-22T09:09:19.012Z,15.45
2023-04-22T09:10:19.028Z,15.48
2023-04-22T09:11:18.981Z,15.51
2023-04-22T09:12:18.974Z,15.52
2023-04-22T09:13:18.954Z,15.54
2023-04-22T09:14:18.941Z,15.60
2023-04-22T09:15:18.951Z,15.65
2023-04-22T09:16:18.924Z,15.69
2023-04-22T09:17:18.980Z,15.73
2023-04-22T09:18:18.876Z,15.81
2023-04-22T09:19:18.872Z,15.88
2023-04-22T09:20:18.873Z,15.91
2023-04-22T09:21:18.876Z,15.98
2023-04-22T09:22:18.832Z,16.00
2023-04-22T09:23:18.824Z,16.03
2023-04-22T09:24:18.798Z,16.10
2023-04-22T09:25:18.835Z,16.13
2023-04-22T09:26:18.768Z,16.18
2023-04-22T09:27:18.760Z,16.24
2023-04-22T09:28:18.807Z,16.28
2023-04-22T09:29:18.728Z,16.28
2023-04-22T09:30:18.763Z,16.26
2023-04-22T09:31:18.783Z,16.24
2023-04-22T09:32:18.696Z,16.25
2023-04-22T09:33:18.698Z,16.25
2023-04-22T09:34:18.723Z,16.26
2023-04-22T09:35:18.701Z,16.26
2023-04-22T09:36:18.648Z,16.25
2023-04-22T09:37:18.638Z,16.26
2023-04-22T09:38:18.636Z,16.25
2023-04-22T09:39:18.614Z,16.24
2023-04-22T09:40:18.639Z,16.26
2023-04-22T09:41:18.581Z,16.29
2023-04-22T09:42:18.587Z,16.32
2023-04-22T09:43:18.587Z,16.37
2023-04-22T09:44:18.549Z,16.40
2023-04-22T09:45:18.538Z,16.41
2023-04-22T09:46:18.606Z,16.44
2023-04-22T09:47:18.531Z,16.50
2023-04-22T09:48:18.506Z,16.57
2023-04-22T09:49:18.479Z,16.62
2023-04-22T09:50:18.510Z,16.66
2023-04-22T09:51:18.497Z,16.69
2023-04-22T09:52:18.434Z,16.76
2023-04-22T09:53:18.429Z,16.76
2023-04-22T09:54:18.410Z,16.79
2023-04-22T09:55:18.404Z,16.77
2023-04-22T09:56:18.407Z,16.77
2023-04-22T09:57:18.380Z,16.79
2023-04-22T09:58:18.344Z,16.82
2023-04-22T09:59:18.345Z,16.84
2023-04-22T10:00:18.348Z,16.86
2023-04-22T10:01:18.376Z,16.84
2023-04-22T10:02:18.344Z,16.87
2023-04-22T10:03:18.413Z,16.91
2023-04-22T10:04:18.415Z,16.92
2023-04-22T10:05:18.291Z,16.97
2023-04-22T10:06:18.257Z,16.95
2023-04-22T10:07:18.227Z,16.99
2023-04-22T10:08:18.226Z,17.02
2023-04-22T10:09:18.202Z,17.04
2023-04-22T10:10:18.222Z,17.07
2023-04-22T10:11:18.211Z,17.13
2023-04-22T10:12:26.198Z,17.20
2023-04-22T10:13:19.149Z,17.24
2023-04-22T10:14:18.139Z,17.28
2023-04-22T10:15:18.155Z,17.31
2023-04-22T10:16:18.149Z,17.34
2023-04-22T10:17:18.101Z,17.37
2023-04-22T10:18:18.071Z,17.41
2023-04-22T10:19:18.071Z,17.42
2023-04-22T10:20:18.178Z,17.46
2023-04-22T10:21:18.086Z,17.49
2023-04-22T10:22:18.028Z,17.50
2023-04-22T10:23:18.042Z,17.50
2023-04-22T10:24:18.006Z,17.47
2023-04-22T10:25:17.991Z,17.49
2023-04-22T10:26:17.981Z,17.44
2023-04-22T10:27:17.955Z,17.47
2023-04-22T10:28:17.948Z,17.46
2023-04-22T10:29:17.935Z,17.47
2023-04-22T10:30:17.889Z,17.44
2023-04-22T10:31:17.997Z,17.44
2023-04-22T10:32:18.010Z,17.44
2023-04-22T10:33:17.868Z,17.47
2023-04-22T10:34:17.871Z,17.49
2023-04-22T10:35:17.969Z,17.49
2023-04-22T10:36:17.858Z,17.50
2023-04-22T10:37:17.828Z,17.52
2023-04-22T10:38:17.826Z,17.54
2023-04-22T10:39:17.818Z,17.57
2023-04-22T10:40:17.797Z,17.65
2023-04-22T10:41:17.789Z,17.71
2023-04-22T10:42:17.756Z,17.76
2023-04-22T10:43:17.771Z,17.84
2023-04-22T10:44:17.733Z,17.93
2023-04-22T10:45:17.726Z,18.05
2023-04-22T10:46:17.803Z,18.13
2023-04-22T10:47:17.697Z,18.23
2023-04-22T10:48:17.670Z,18.26
2023-04-22T10:49:19.909Z,18.30
2023-04-22T10:50:17.699Z,18.28
2023-04-22T10:51:17.647Z,18.34
2023-04-22T10:52:17.629Z,18.36
2023-04-22T10:53:17.658Z,18.36
2023-04-22T10:54:17.600Z,18.33
2023-04-22T10:55:17.631Z,18.30
2023-04-22T10:56:17.584Z,18.30
2023-04-22T10:57:17.605Z,18.36
2023-04-22T10:58:17.557Z,18.42
2023-04-22T10:59:17.574Z,18.45
2023-04-22T11:00:17.542Z,18.48
2023-04-22T11:01:17.552Z,18.55
2023-04-22T11:02:17.566Z,18.61
2023-04-22T11:03:17.727Z,18.70
2023-04-22T11:04:17.579Z,18.76
2023-04-22T11:05:17.446Z,18.83
2023-04-22T11:06:17.434Z,18.92
2023-04-22T11:07:17.443Z,19.01
2023-04-22T11:08:17.411Z,19.07
2023-04-22T11:09:17.460Z,19.15
2023-04-22T11:10:17.380Z,19.19
2023-04-22T11:11:17.372Z,19.26
2023-04-22T11:12:17.474Z,19.32
2023-04-22T11:13:17.370Z,19.39
2023-04-22T11:14:17.362Z,19.45
2023-04-22T11:15:17.344Z,19.52
2023-04-22T11:16:17.433Z,19.60
2023-04-22T11:17:17.313Z,19.64
2023-04-22T11:18:17.299Z,19.67
2023-04-22T11:19:17.292Z,19.70
2023-04-22T11:20:17.321Z,19.72
2023-04-22T11:21:17.284Z,19.72
2023-04-22T11:22:17.232Z,19.74
2023-04-22T11:23:17.229Z,19.77
2023-04-22T11:24:17.228Z,19.81
2023-04-22T11:25:17.195Z,19.85
2023-04-22T11:26:17.173Z,19.90
2023-04-22T11:27:17.204Z,19.94
2023-04-22T11:28:17.179Z,19.96
2023-04-22T11:29:17.143Z,19.97
2023-04-22T11:30:17.150Z,19.97
2023-04-22T11:31:17.157Z,19.97
2023-04-22T11:32:17.093Z,19.97
2023-04-22T11:33:17.110Z,20.00
2023-04-22T11:34:17.055Z,20.04
2023-04-22T11:35:17.056Z,20.04
2023-04-22T11:36:17.075Z,20.10
2023-04-22T11:37:17.026Z,20.11
2023-04-22T11:38:17.030Z,20.11
2023-04-22T11:39:16.988Z,20.11
2023-04-22T11:40:29.940Z,20.14
2023-04-22T11:41:17.990Z,20.11
2023-04-22T11:42:16.951Z,20.11
2023-04-22T11:43:16.970Z,20.12
2023-04-22T11:44:16.977Z,20.15
2023-04-22T11:45:16.946Z,20.12
2023-04-22T11:46:16.922Z,20.10
2023-04-22T11:47:16.906Z,20.04
2023-04-22T11:48:16.897Z,20.04
2023-04-22T11:49:16.870Z,20.08
2023-04-22T11:50:16.841Z,20.12
2023-04-22T11:51:16.828Z,20.15
2023-04-22T11:52:16.811Z,20.19
2023-04-22T11:53:16.874Z,20.24
2023-04-22T11:54:16.784Z,20.29
2023-04-22T11:55:16.779Z,20.34
2023-04-22T11:56:16.744Z,20.37
2023-04-22T11:57:16.745Z,20.42
2023-04-22T11:58:16.751Z,20.44
2023-04-22T11:59:16.708Z,20.49
2023-04-22T12:00:16.762Z,20.49
2023-04-22T12:01:16.684Z,20.50
2023-04-22T12:02:16.755Z,20.55
2023-04-22T12:03:16.791Z,20.56
2023-04-22T12:04:16.675Z,20.63
2023-04-22T12:05:16.670Z,20.67
2023-04-22T12:06:16.633Z,20.71
2023-04-22T12:07:16.598Z,20.75
2023-04-22T12:08:16.611Z,20.82
2023-04-22T12:09:16.610Z,20.85
2023-04-22T12:10:16.562Z,20.92
2023-04-22T12:11:16.553Z,20.90
2023-04-22T12:12:16.682Z,20.89
2023-04-22T12:13:16.680Z,20.93
2023-04-22T12:14:16.537Z,20.98
2023-04-22T12:15:18.672Z,21.01
2023-04-22T12:16:16.687Z,21.07
2023-04-22T12:17:16.567Z,21.08
2023-04-22T12:18:16.497Z,21.11
2023-04-22T12:19:16.444Z,21.10
2023-04-22T12:20:16.428Z,21.10
2023-04-22T12:21:16.413Z,20.98
2023-04-22T12:22:16.407Z,20.86
2023-04-22T12:23:16.419Z,20.75
2023-04-22T12:24:16.369Z,20.71
2023-04-22T12:25:16.380Z,20.75
2023-04-22T12:26:16.351Z,20.80
2023-04-22T12:27:16.352Z,20.85
2023-04-22T12:28:16.348Z,20.74
2023-04-22T12:29:16.306Z,20.66
2023-04-22T12:30:16.305Z,20.56
2023-04-22T12:31:16.300Z,20.46
2023-04-22T12:32:16.286Z,20.37
2023-04-22T12:33:16.245Z,20.32
2023-04-22T12:34:16.257Z,20.24
2023-04-22T12:35:16.247Z,20.15
2023-04-22T12:36:16.223Z,20.07
2023-04-22T12:37:16.201Z,20.00
2023-04-22T12:38:16.190Z,19.96
2023-04-22T12:39:16.177Z,19.89
2023-04-22T12:40:16.141Z,19.81
2023-04-22T12:41:16.127Z,19.72
2023-04-22T12:42:16.124Z,19.67
2023-04-22T12:43:16.109Z,19.63
2023-04-22T12:44:16.115Z,19.59
2023-04-22T12:45:16.089Z,19.55
2023-04-22T12:46:16.090Z,19.49
2023-04-22T12:47:16.085Z,19.42
2023-04-22T12:48:16.084Z,19.37
2023-04-22T12:49:16.042Z,19.32
2023-04-22T12:50:16.031Z,19.30
2023-04-22T12:51:16.013Z,19.26
2023-04-22T12:52:16.001Z,19.23
2023-04-22T12:53:16.707Z,19.20
2023-04-22T12:54:15.988Z,19.22
2023-04-22T12:55:15.957Z,19.20
2023-04-22T12:56:15.941Z,19.22
2023-04-22T12:57:15.954Z,19.23
2023-04-22T12:58:15.919Z,19.24
2023-04-22T12:59:15.905Z,19.27
2023-04-22T13:00:15.902Z,19.26
2023-04-22T13:01:15.963Z,19.23
2023-04-22T13:02:15.955Z,19.19
2023-04-22T13:03:15.997Z,19.17
2023-04-22T13:04:15.968Z,19.12
2023-04-22T13:05:15.816Z,19.08